Time;durP1;ratioP1;P1;durP2;ratioP2;P2;SDS_P1;SDS_P2;PMS_P1;PMS_P2;Temp;Humidity;BMP_temperature;BMP_pressure;BME280_temperature;BME280_humidity;BME280_pressure;Samples;Min_cycle;Max_cycle;Signal;HPM_P1;HPM_P2
2022/10/29 00:01:42;;;;;;;31.02;12.50;;;;;;;14.80;100.00;101825.72;5091734;28;20032;-77
2022/10/29 00:04:07;;;;;;;22.88;11.43;;;;;;;14.52;100.00;101819.63;5078902;28;20039;-77
2022/10/29 00:06:32;;;;;;;29.50;12.18;;;;;;;14.71;100.00;101819.06;5062791;28;20036;-77
2022/10/29 00:08:58;;;;;;;23.35;11.18;;;;;;;14.45;100.00;101816.50;5062533;28;20044;-77
2022/10/29 00:11:23;;;;;;;31.65;11.88;;;;;;;14.36;100.00;101821.88;5062951;28;20039;-77
2022/10/29 00:13:54;;;;;;;35.13;12.48;;;;;;;14.41;100.00;101819.63;5056576;28;20068;-77
2022/10/29 00:16:22;;;;;;;31.15;11.88;;;;;;;14.58;100.00;101823.81;5068410;28;20029;-78
2022/10/29 00:18:47;;;;;;;28.83;10.48;;;;;;;14.53;100.00;101808.50;5073489;28;20445;-77
2022/10/29 00:21:15;;;;;;;25.55;13.43;;;;;;;14.52;100.00;101812.25;5076343;28;20025;-77
2022/10/29 00:23:41;;;;;;;27.60;11.75;;;;;;;14.54;100.00;101803.84;5058891;28;20028;-77
2022/10/29 00:26:07;;;;;;;27.88;11.05;;;;;;;14.48;100.00;101799.72;5076872;28;20097;-77
2022/10/29 00:28:33;;;;;;;19.42;10.57;;;;;;;14.53;100.00;101793.84;5069383;28;20032;-77
2022/10/29 00:31:15;;;;;;;31.85;12.43;;;;;;;14.57;100.00;101794.47;5077235;28;20029;-77
2022/10/29 00:33:40;;;;;;;24.80;11.20;;;;;;;14.55;100.00;101786.31;5076137;28;20492;-77
2022/10/29 00:36:12;;;;;;;36.35;10.85;;;;;;;14.46;100.00;101792.56;5071361;28;20083;-77
2022/10/29 00:38:38;;;;;;;21.60;10.05;;;;;;;14.37;100.00;101796.94;5043301;28;20059;-77
2022/10/29 00:41:06;;;;;;;23.15;10.48;;;;;;;14.48;100.00;101804.38;5075208;28;20067;-77
2022/10/29 00:43:33;;;;;;;33.60;11.20;;;;;;;14.43;100.00;101796.47;5075784;28;20132;-77
2022/10/29 00:46:03;;;;;;;29.63;11.20;;;;;;;14.38;100.00;101803.34;5075339;28;20514;-77
2022/10/29 00:48:33;;;;;;;21.67;11.00;;;;;;;14.29;100.00;101794.81;5075766;28;20100;-77
2022/10/29 00:51:02;;;;;;;23.40;10.98;;;;;;;14.30;100.00;101796.56;5074830;28;20029;-77
2022/10/29 00:53:32;;;;;;;24.73;10.88;;;;;;;14.20;100.00;101797.41;5072201;28;20087;-77
2022/10/29 00:55:59;;;;;;;27.52;10.95;;;;;;;14.10;100.00;101795.41;5065429;28;20047;-77
2022/10/29 00:58:24;;;;;;;29.75;11.25;;;;;;;14.15;100.00;101795.91;5022309;28;20041;-77
2022/10/29 01:00:50;;;;;;;20.08;10.88;;;;;;;14.08;100.00;101804.78;5071892;28;20515;-76
2022/10/29 01:03:15;;;;;;;32.25;11.75;;;;;;;14.09;100.00;101812.91;5041580;28;20051;-76
2022/10/29 01:05:42;;;;;;;21.17;11.70;;;;;;;14.16;100.00;101814.19;5056368;28;20127;-77
2022/10/29 01:08:09;;;;;;;28.60;11.48;;;;;;;14.26;100.00;101807.94;5058211;28;20043;-77
2022/10/29 01:10:51;;;;;;;25.15;10.00;;;;;;;14.23;100.00;101814.59;5074619;28;20048;-77
2022/10/29 01:13:36;;;;;;;32.25;11.13;;;;;;;14.29;100.00;101816.84;5067120;28;20048;-77
2022/10/29 01:16:18;;;;;;;23.30;11.70;;;;;;;14.26;100.00;101816.22;5076104;28;20044;-77
2022/10/29 01:18:59;;;;;;;36.95;11.38;;;;;;;14.19;100.00;101804.81;5078125;28;20021;-77
2022/10/29 01:21:33;;;;;;;36.40;12.07;;;;;;;14.26;100.00;101805.19;5091858;28;20037;-77
2022/10/29 01:24:17;;;;;;;32.83;11.52;;;;;;;14.20;100.00;101791.91;5074757;28;20387;-77
2022/10/29 01:27:06;;;;;;;26.30;11.95;;;;;;;14.20;100.00;101789.16;5060134;28;20044;-77
2022/10/29 01:29:50;;;;;;;26.42;12.52;;;;;;;14.15;100.00;101795.91;5074805;28;20488;-77
2022/10/29 01:32:30;;;;;;;24.40;11.70;;;;;;;13.99;100.00;101784.34;5091337;28;20048;-77
2022/10/29 01:35:04;;;;;;;24.17;11.23;;;;;;;13.93;100.00;101787.59;5074362;28;20032;-77
2022/10/29 01:37:54;;;;;;;38.03;11.30;;;;;;;13.85;100.00;101787.31;5090231;28;20421;-77
2022/10/29 01:40:27;;;;;;;15.05;9.75;;;;;;;13.90;100.00;101774.06;5073216;28;20404;-77
2022/10/29 01:43:01;;;;;;;20.00;10.05;;;;;;;13.95;100.00;101764.47;5073794;28;20036;-77
2022/10/29 01:45:38;;;;;;;25.50;9.55;;;;;;;13.88;100.00;101770.56;5071441;28;20028;-77
2022/10/29 01:48:13;;;;;;;13.10;8.68;;;;;;;13.85;100.00;101759.78;5091104;28;20036;-77
2022/10/29 01:50:42;;;;;;;15.95;9.02;;;;;;;13.88;100.00;101762.31;5091368;28;20035;-78
2022/10/29 01:53:08;;;;;;;21.70;10.55;;;;;;;13.83;100.00;101770.03;5075113;28;20075;-77
2022/10/29 01:55:34;;;;;;;26.10;10.70;;;;;;;13.83;100.00;101765.41;5073829;28;20111;-78
2022/10/29 01:58:02;;;;;;;20.35;10.95;;;;;;;13.82;100.00;101763.63;5091523;28;20106;-78
2022/10/29 02:00:50;;;;;;;18.10;10.82;;;;;;;13.78;100.00;101760.25;5059280;28;20058;-78
2022/10/29 02:04:13;;;;;;;27.05;13.60;;;;;;;13.84;100.00;101752.50;5025062;28;20147;-78
2022/10/29 02:06:54;;;;;;;23.27;10.55;;;;;;;13.74;100.00;101747.75;5048459;28;20630;-78
2022/10/29 02:09:31;;;;;;;16.10;8.63;;;;;;;13.60;100.00;101754.31;5038302;28;20075;-78
2022/10/29 02:12:09;;;;;;;23.98;11.10;;;;;;;13.62;100.00;101756.94;5068394;28;20063;-78
2022/10/29 02:14:45;;;;;;;26.60;12.82;;;;;;;13.56;100.00;101749.16;5096082;28;20043;-78
2022/10/29 02:17:11;;;;;;;19.98;11.18;;;;;;;13.44;100.00;101753.75;5114809;28;20023;-78
2022/10/29 02:19:36;;;;;;;19.88;10.82;;;;;;;13.39;100.00;101750.47;5116602;28;20043;-77
2022/10/29 02:22:02;;;;;;;20.73;10.85;;;;;;;13.36;100.00;101739.69;5097906;28;20054;-78
2022/10/29 02:24:27;;;;;;;28.48;10.70;;;;;;;13.39;100.00;101740.34;5097330;28;20040;-78
2022/10/29 02:26:53;;;;;;;26.38;11.25;;;;;;;13.39;100.00;101737.59;5078100;28;20124;-78
2022/10/29 02:29:18;;;;;;;21.25;11.60;;;;;;;13.36;100.00;101729.59;5097128;28;20050;-78
2022/10/29 02:31:44;;;;;;;22.33;11.20;;;;;;;13.40;100.00;101731.09;5098954;28;20059;-78
2022/10/29 02:34:09;;;;;;;26.83;12.60;;;;;;;13.42;100.00;101730.97;5098747;28;20031;-78
2022/10/29 02:36:34;;;;;;;22.90;11.20;;;;;;;13.38;100.00;101724.84;5080470;28;20118;-77
2022/10/29 02:39:00;;;;;;;21.10;11.15;;;;;;;13.36;100.00;101724.09;5080725;28;20118;-77
2022/10/29 02:41:25;;;;;;;17.00;10.85;;;;;;;13.35;100.00;101724.22;5096247;28;20032;-78
2022/10/29 02:43:51;;;;;;;20.95;11.35;;;;;;;13.28;100.00;101721.03;5064004;28;20053;-77
2022/10/29 02:46:19;;;;;;;25.27;12.50;;;;;;;13.25;100.00;101713.00;5063198;28;20131;-77
2022/10/29 02:48:45;;;;;;;27.92;12.85;;;;;;;13.33;100.00;101721.56;5116487;28;20035;-78
2022/10/29 02:51:11;;;;;;;22.10;11.45;;;;;;;13.21;100.00;101726.09;5097222;28;20518;-77
2022/10/29 02:53:37;;;;;;;21.40;11.95;;;;;;;13.24;100.00;101714.84;5095365;28;20028;-77
2022/10/29 02:56:03;;;;;;;31.40;12.95;;;;;;;13.30;100.00;101709.88;5097432;28;20471;-77
2022/10/29 02:58:28;;;;;;;27.10;11.43;;;;;;;13.31;100.00;101706.13;5096985;28;20118;-76
2022/10/29 03:00:54;;;;;;;26.58;12.05;;;;;;;13.29;100.00;101703.50;5098096;28;20103;-77
2022/10/29 03:03:19;;;;;;;28.80;12.30;;;;;;;13.39;100.00;101695.44;5081001;28;20096;-78
2022/10/29 03:05:45;;;;;;;21.40;11.55;;;;;;;13.48;100.00;101689.25;5093131;28;20040;-77
2022/10/29 03:08:10;;;;;;;32.95;14.02;;;;;;;13.72;100.00;101685.53;5093254;28;20531;-77
2022/10/29 03:10:36;;;;;;;26.52;12.07;;;;;;;13.57;100.00;101694.00;5076717;28;20589;-77
2022/10/29 03:13:01;;;;;;;22.92;10.43;;;;;;;13.45;100.00;101700.50;5053199;28;20043;-77
2022/10/29 03:15:27;;;;;;;24.70;9.98;;;;;;;13.27;100.00;101694.50;5078371;28;20047;-77
2022/10/29 03:17:53;;;;;;;18.40;10.32;;;;;;;13.27;100.00;101700.00;5096901;28;20042;-77
2022/10/29 03:20:18;;;;;;;15.10;9.40;;;;;;;13.25;100.00;101704.75;5096485;28;20035;-78
2022/10/29 03:22:43;;;;;;;16.13;9.32;;;;;;;13.18;100.00;101703.44;5095435;28;20062;-77
2022/10/29 03:25:09;;;;;;;20.10;10.48;;;;;;;13.19;100.00;101692.34;5057836;28;20028;-78
2022/10/29 03:27:43;;;;;;;20.13;10.98;;;;;;;13.21;100.00;101686.72;5077415;28;20042;-78
2022/10/29 03:30:13;;;;;;;20.65;11.65;;;;;;;13.24;100.00;101684.59;5080167;28;20165;-78
2022/10/29 03:32:42;;;;;;;21.38;12.00;;;;;;;13.20;100.00;101679.47;5092776;28;20086;-78
2022/10/29 03:35:09;;;;;;;20.05;11.35;;;;;;;13.14;100.00;101689.06;5095805;28;20031;-77
2022/10/29 03:37:35;;;;;;;24.38;11.25;;;;;;;13.10;100.00;101689.41;5096997;28;20035;-78
2022/10/29 03:40:01;;;;;;;20.85;10.75;;;;;;;13.10;100.00;101675.66;5103941;28;20122;-78
2022/10/29 03:42:26;;;;;;;24.80;11.45;;;;;;;13.03;100.00;101678.88;5068110;28;20032;-78
2022/10/29 03:44:52;;;;;;;20.60;11.65;;;;;;;13.12;100.00;101684.66;5097557;28;20084;-78
2022/10/29 03:47:17;;;;;;;33.17;13.88;;;;;;;13.03;100.00;101676.13;5071216;28;20039;-78
2022/10/29 03:49:42;;;;;;;28.42;12.15;;;;;;;12.95;100.00;101683.22;5111895;28;20495;-77
2022/10/29 03:52:08;;;;;;;28.67;12.70;;;;;;;13.03;100.00;101672.50;5076469;28;20036;-77
2022/10/29 03:54:33;;;;;;;25.05;12.88;;;;;;;12.93;100.00;101674.22;5060730;28;20028;-78
2022/10/29 03:56:59;;;;;;;31.95;14.40;;;;;;;13.03;100.00;101667.00;5079202;28;20039;-77
2022/10/29 03:59:24;;;;;;;27.27;12.90;;;;;;;12.98;100.00;101669.25;5075000;28;20044;-78
2022/10/29 04:01:50;;;;;;;26.33;11.38;;;;;;;12.98;100.00;101664.59;5088922;28;20024;-77
2022/10/29 04:04:15;;;;;;;24.73;11.02;;;;;;;13.06;100.00;101658.53;5095325;28;20032;-77
2022/10/29 04:06:40;;;;;;;30.77;13.63;;;;;;;13.04;100.00;101663.28;5071979;28;20044;-77
2022/10/29 04:09:06;;;;;;;28.77;13.15;;;;;;;13.21;100.00;101659.22;5094618;28;20055;-77
2022/10/29 04:11:31;;;;;;;33.10;13.27;;;;;;;13.19;100.00;101648.34;5094910;28;20028;-78
2022/10/29 04:13:57;;;;;;;38.50;15.10;;;;;;;13.16;100.00;101628.44;5097435;28;20047;-78
2022/10/29 04:16:23;;;;;;;28.52;13.07;;;;;;;13.10;100.00;101621.56;5075102;28;20073;-78
2022/10/29 04:18:48;;;;;;;23.95;11.73;;;;;;;13.10;100.00;101616.06;5087699;28;20036;-77
2022/10/29 04:21:15;;;;;;;26.27;12.90;;;;;;;12.99;100.00;101624.28;5068149;28;20032;-78
2022/10/29 04:23:40;;;;;;;28.45;12.40;;;;;;;13.05;100.00;101624.69;5079602;28;20043;-79
2022/10/29 04:26:09;;;;;;;28.60;13.60;;;;;;;13.05;100.00;101621.94;5078422;28;20032;-78
2022/10/29 04:28:35;;;;;;;28.23;13.35;;;;;;;13.06;100.00;101636.53;5079695;28;20032;-78
2022/10/29 04:31:10;;;;;;;35.15;13.65;;;;;;;13.10;100.00;101638.06;5047278;28;20378;-78
2022/10/29 04:33:35;;;;;;;34.10;13.73;;;;;;;13.20;100.00;101635.47;5115822;28;20036;-78
2022/10/29 04:36:01;;;;;;;31.17;13.40;;;;;;;13.23;100.00;101640.72;5043104;28;20039;-79
2022/10/29 04:38:26;;;;;;;32.42;15.32;;;;;;;13.30;100.00;101628.25;5081692;28;20031;-79
2022/10/29 04:40:52;;;;;;;32.28;14.38;;;;;;;13.30;100.00;101632.88;5097023;28;20409;-78
2022/10/29 04:43:17;;;;;;;37.60;15.20;;;;;;;13.33;100.00;101638.16;5096378;28;20039;-77
2022/10/29 04:45:43;;;;;;;25.45;13.23;;;;;;;13.35;100.00;101630.69;5059735;28;20032;-78
2022/10/29 04:48:08;;;;;;;29.88;14.55;;;;;;;13.32;100.00;101633.66;5079719;28;20062;-78
2022/10/29 04:50:36;;;;;;;39.13;14.27;;;;;;;13.34;100.00;101631.69;5044275;28;20036;-79
2022/10/29 04:53:04;;;;;;;31.75;14.43;;;;;;;13.30;100.00;101635.63;5106047;28;20051;-78
2022/10/29 04:55:30;;;;;;;38.40;15.95;;;;;;;13.25;100.00;101627.75;5101127;28;20051;-81
2022/10/29 04:57:56;;;;;;;35.42;14.52;;;;;;;13.27;100.00;101630.38;5064109;28;20471;-79
2022/10/29 05:00:22;;;;;;;35.97;14.13;;;;;;;13.19;100.00;101630.97;5098796;28;20059;-79
2022/10/29 05:02:49;;;;;;;36.42;15.80;;;;;;;13.14;100.00;101630.47;5079195;28;20416;-78
2022/10/29 05:05:15;;;;;;;37.50;14.43;;;;;;;13.12;100.00;101633.31;5069688;28;20123;-80
2022/10/29 05:07:41;;;;;;;41.90;14.43;;;;;;;13.16;100.00;101639.47;5070871;28;20031;-78
2022/10/29 05:10:06;;;;;;;33.72;15.02;;;;;;;13.23;100.00;101633.38;5084845;28;20076;-78
2022/10/29 05:12:32;;;;;;;32.25;14.98;;;;;;;13.33;100.00;101627.16;5083293;28;20495;-78
2022/10/29 05:14:57;;;;;;;40.78;16.10;;;;;;;13.33;100.00;101621.66;5101393;28;20042;-78
2022/10/29 05:17:23;;;;;;;37.10;15.85;;;;;;;13.29;100.00;101610.00;5103801;28;20035;-79
2022/10/29 05:19:48;;;;;;;30.80;13.55;;;;;;;13.26;100.00;101607.47;5100313;28;20047;-78
2022/10/29 05:22:13;;;;;;;29.98;13.32;;;;;;;13.27;100.00;101601.00;5063305;28;20422;-78
2022/10/29 05:24:39;;;;;;;30.08;12.52;;;;;;;13.26;100.00;101592.88;5082642;28;20040;-78
2022/10/29 05:27:05;;;;;;;34.75;13.88;;;;;;;13.24;100.00;101593.84;5075295;28;20032;-78
2022/10/29 05:29:31;;;;;;;35.72;14.30;;;;;;;13.20;100.00;101595.09;5066621;28;20035;-78
2022/10/29 05:31:56;;;;;;;36.22;15.52;;;;;;;13.19;100.00;101597.97;5079640;28;20491;-78
2022/10/29 05:34:22;;;;;;;29.02;13.60;;;;;;;13.27;100.00;101608.38;5077307;28;20047;-78
2022/10/29 05:36:47;;;;;;;34.50;14.63;;;;;;;13.27;100.00;101589.13;5096641;28;20039;-79
2022/10/29 05:39:13;;;;;;;36.08;15.60;;;;;;;13.37;100.00;101585.53;5109305;28;20036;-78
2022/10/29 05:41:38;;;;;;;34.75;14.63;;;;;;;13.33;100.00;101597.81;5110938;28;20479;-78
2022/10/29 05:44:04;;;;;;;32.92;14.00;;;;;;;13.31;100.00;101601.63;5096777;28;20039;-78
2022/10/29 05:46:29;;;;;;;29.35;14.00;;;;;;;13.35;100.00;101604.06;5080594;28;20392;-78
2022/10/29 05:48:55;;;;;;;49.53;13.88;;;;;;;13.37;100.00;101601.19;5082539;28;20126;-78
2022/10/29 05:51:20;;;;;;;36.47;14.48;;;;;;;13.45;100.00;101600.59;5078787;28;20062;-78
2022/10/29 05:53:46;;;;;;;40.00;14.65;;;;;;;13.64;100.00;101597.22;5097568;28;20091;-78
2022/10/29 05:56:12;;;;;;;40.22;15.55;;;;;;;13.58;100.00;101579.34;5093979;28;20030;-78
2022/10/29 05:58:37;;;;;;;32.65;15.57;;;;;;;13.64;100.00;101580.72;5078809;28;20115;-78
2022/10/29 06:01:10;;;;;;;33.33;13.63;;;;;;;13.70;100.00;101585.72;5079379;28;20024;-78
2022/10/29 06:03:36;;;;;;;;;;;;;;;13.69;100.00;101587.59;5082170;28;20035;-78
2022/10/29 06:06:02;;;;;;;33.17;14.52;;;;;;;13.63;100.00;101587.22;5110701;28;19934;-78
2022/10/29 06:08:27;;;;;;;33.63;13.82;;;;;;;13.60;100.00;101589.19;5077879;28;20039;-78
2022/10/29 06:10:53;;;;;;;36.80;13.85;;;;;;;13.66;100.00;101586.94;5090308;28;20032;-77
2022/10/29 06:13:20;;;;;;;36.88;14.73;;;;;;;13.64;100.00;101578.81;5115464;28;20105;-79
2022/10/29 06:15:48;;;;;;;28.88;13.65;;;;;;;13.68;100.00;101571.22;5107585;28;20059;-78
2022/10/29 06:18:14;;;;;;;34.75;13.68;;;;;;;13.65;100.00;101568.72;5097436;28;20074;-78
2022/10/29 06:20:40;;;;;;;29.50;13.68;;;;;;;13.61;100.00;101559.84;5095630;28;20062;-78
2022/10/29 06:23:06;;;;;;;41.92;13.35;;;;;;;13.58;100.00;101574.69;5096806;28;20509;-77
2022/10/29 06:25:31;;;;;;;40.60;13.95;;;;;;;13.67;100.00;101574.97;5094994;28;20039;-79
2022/10/29 06:28:04;;;;;;;31.40;13.93;;;;;;;13.63;100.00;101584.47;5096561;28;20479;-79
2022/10/29 06:30:34;;;;;;;37.15;13.95;;;;;;;13.66;100.00;101574.09;5116194;28;20039;-81
2022/10/29 06:33:00;;;;;;;36.50;14.05;;;;;;;13.58;100.00;101582.97;5099772;28;20110;-78
2022/10/29 06:35:26;;;;;;;35.30;13.30;;;;;;;13.69;100.00;101583.97;5078938;28;20043;-79
2022/10/29 06:37:51;;;;;;;32.67;12.82;;;;;;;13.84;100.00;101587.34;5096863;28;20080;-78
2022/10/29 06:40:17;;;;;;;31.52;13.52;;;;;;;13.83;100.00;101588.38;5081308;28;20417;-79
2022/10/29 06:42:42;;;;;;;38.20;13.10;;;;;;;13.89;100.00;101596.13;5077696;28;20035;-79
2022/10/29 06:45:09;;;;;;;32.03;13.27;;;;;;;13.98;100.00;101593.47;5112678;28;20031;-79
2022/10/29 06:47:41;;;;;;;40.72;13.45;;;;;;;14.11;100.00;101586.97;5098968;28;20087;-79
2022/10/29 06:50:09;;;;;;;54.63;13.18;;;;;;;14.11;100.00;101590.59;5080323;28;20059;-78
2022/10/29 06:52:35;;;;;;;32.63;12.90;;;;;;;14.12;100.00;101591.50;5080507;28;20080;-79
2022/10/29 06:55:01;;;;;;;27.70;12.65;;;;;;;14.13;100.00;101599.63;5097546;28;20034;-78
2022/10/29 06:57:27;;;;;;;38.67;12.73;;;;;;;14.15;100.00;101597.63;5078224;28;20028;-79
2022/10/29 06:59:53;;;;;;;32.50;13.35;;;;;;;14.19;100.00;101589.09;5082982;28;20047;-79
2022/10/29 07:02:21;;;;;;;29.45;12.43;;;;;;;14.25;100.00;101580.31;5045040;28;20440;-79
2022/10/29 07:04:47;;;;;;;31.17;13.20;;;;;;;14.34;100.00;101588.69;5086375;28;20420;-78
2022/10/29 07:07:13;;;;;;;28.13;11.20;;;;;;;14.29;100.00;101593.69;5063948;28;20039;-78
2022/10/29 07:09:39;;;;;;;27.00;11.35;;;;;;;14.29;100.00;101593.69;5102607;28;20499;-77
2022/10/29 07:12:05;;;;;;;33.60;12.15;;;;;;;14.26;100.00;101599.47;5119205;28;20032;-78
2022/10/29 07:14:30;;;;;;;24.60;11.90;;;;;;;14.24;100.00;101608.88;5099784;28;20127;-78
2022/10/29 07:16:56;;;;;;;36.35;12.60;;;;;;;14.15;100.00;101607.75;5097605;28;20498;-77
2022/10/29 07:19:21;;;;;;;34.13;12.93;;;;;;;14.10;100.00;101604.47;5096004;28;20043;-78
2022/10/29 07:21:47;;;;;;;34.45;12.65;;;;;;;14.20;100.00;101610.13;5059984;28;20059;-78
2022/10/29 07:24:12;;;;;;;31.25;12.93;;;;;;;14.18;100.00;101615.75;5061584;28;20430;-78
2022/10/29 07:26:38;;;;;;;31.63;12.48;;;;;;;14.14;100.00;101609.63;5100494;28;20036;-78
2022/10/29 07:29:03;;;;;;;29.48;13.65;;;;;;;14.17;100.00;101608.50;5061078;28;20471;-78
2022/10/29 07:31:30;;;;;;;35.63;13.98;;;;;;;14.15;100.00;101605.00;5060477;28;20044;-79
2022/10/29 07:33:56;;;;;;;24.52;11.85;;;;;;;14.24;100.00;101595.97;5094183;28;20032;-78
2022/10/29 07:36:22;;;;;;;38.25;14.60;;;;;;;14.22;100.00;101586.97;5104306;28;20043;-78
2022/10/29 07:38:48;;;;;;;33.78;14.85;;;;;;;14.39;100.00;101593.81;5096152;28;20036;-78
2022/10/29 07:41:14;;;;;;;33.53;14.77;;;;;;;14.55;100.00;101590.66;5097959;28;20031;-78
2022/10/29 07:43:39;;;;;;;34.75;15.27;;;;;;;14.55;100.00;101593.41;5098290;28;20035;-78
2022/10/29 07:46:05;;;;;;;35.53;15.48;;;;;;;14.70;100.00;101588.50;5097201;28;20483;-77
2022/10/29 07:48:31;;;;;;;29.70;15.07;;;;;;;14.79;100.00;101584.97;5078650;28;20047;-78
2022/10/29 07:51:00;;;;;;;30.30;14.20;;;;;;;15.01;100.00;101577.63;5062082;28;20032;-79
2022/10/29 07:53:26;;;;;;;31.38;14.32;;;;;;;15.21;100.00;101576.72;5096970;28;20483;-79
2022/10/29 07:55:57;;;;;;;25.00;11.98;;;;;;;15.43;100.00;101580.41;5095745;28;20032;-79
2022/10/29 07:58:25;;;;;;;28.15;12.48;;;;;;;15.50;100.00;101566.94;5098406;28;20044;-79
2022/10/29 08:00:51;;;;;;;30.55;10.93;;;;;;;15.46;100.00;101555.25;5081520;28;20023;-79
2022/10/29 08:03:17;;;;;;;31.25;13.73;;;;;;;15.52;100.00;101562.13;5114964;28;20031;-79
2022/10/29 08:05:43;;;;;;;31.45;13.85;;;;;;;15.52;100.00;101568.53;5110952;28;20043;-79
2022/10/29 08:08:08;;;;;;;30.30;13.82;;;;;;;15.50;100.00;101569.69;5097950;28;20032;-78
2022/10/29 08:10:34;;;;;;;31.48;13.27;;;;;;;15.66;100.00;101574.69;5116416;28;20048;-78
2022/10/29 08:13:02;;;;;;;28.73;11.88;;;;;;;15.77;100.00;101581.06;5080587;28;20047;-79
2022/10/29 08:15:29;;;;;;;29.42;11.00;;;;;;;16.09;100.00;101582.78;5079597;28;20067;-79
2022/10/29 08:17:55;;;;;;;31.05;11.40;;;;;;;16.37;100.00;101568.34;5115273;28;20070;-79
2022/10/29 08:20:23;;;;;;;22.00;11.50;;;;;;;16.51;100.00;101577.09;5080617;28;20494;-79
2022/10/29 08:22:49;;;;;;;20.55;10.80;;;;;;;16.53;100.00;101579.72;5095743;28;20035;-79
2022/10/29 08:25:15;;;;;;;21.55;10.05;;;;;;;16.61;100.00;101578.97;5075677;28;20032;-79
2022/10/29 08:27:41;;;;;;;25.27;9.75;;;;;;;16.49;100.00;101567.19;5062110;28;20032;-79
2022/10/29 08:30:09;;;;;;;25.55;10.63;;;;;;;16.59;100.00;101570.81;5084308;28;20606;-79
2022/10/29 08:32:35;;;;;;;28.35;10.18;;;;;;;16.52;100.00;101561.38;5120363;28;20071;-79
2022/10/29 08:35:01;;;;;;;24.88;10.43;;;;;;;16.45;100.00;101569.38;5084721;28;20867;-79
2022/10/29 08:37:27;;;;;;;24.88;10.02;;;;;;;16.48;100.00;101582.03;5077228;28;20525;-78
2022/10/29 08:39:52;;;;;;;23.83;9.75;;;;;;;16.48;100.00;101577.38;5100469;28;20043;-78
2022/10/29 08:42:50;;;;;;;26.25;9.40;;;;;;;16.53;100.00;101580.59;5101350;28;20031;-79
2022/10/29 08:45:50;;;;;;;26.88;8.75;;;;;;;16.56;100.00;101570.25;5109972;28;20040;-79
2022/10/29 08:48:15;;;;;;;19.15;8.75;;;;;;;16.56;100.00;101579.44;5051322;28;20050;-79
2022/10/29 08:50:45;;;;;;;26.25;8.75;;;;;;;16.68;100.00;101571.88;5085070;28;20414;-78
2022/10/29 08:53:24;;;;;;;24.02;8.15;;;;;;;16.92;100.00;101576.13;5068416;28;20058;-79
2022/10/29 08:55:49;;;;;;;22.30;8.40;;;;;;;16.90;100.00;101582.72;5101122;28;20356;-79
2022/10/29 08:58:32;;;;;;;20.92;7.47;;;;;;;17.18;100.00;101582.81;5083123;28;20062;-79
2022/10/29 09:00:57;;;;;;;27.00;7.65;;;;;;;17.62;100.00;101574.00;5082074;28;20032;-79
2022/10/29 09:03:26;;;;;;;16.35;6.20;;;;;;;18.15;100.00;101576.19;5094336;28;20087;-79
2022/10/29 09:06:13;;;;;;;19.17;6.30;;;;;;;18.06;100.00;101585.41;5080812;28;20387;-79
2022/10/29 09:08:47;;;;;;;25.38;7.25;;;;;;;17.98;100.00;101577.84;5099114;28;20038;-79
2022/10/29 09:11:41;;;;;;;22.13;6.90;;;;;;;17.72;100.00;101577.59;5099688;28;20036;-79
2022/10/29 09:14:16;;;;;;;24.33;6.70;;;;;;;17.62;100.00;101574.00;5117811;28;20400;-79
2022/10/29 09:17:12;;;;;;;19.90;6.85;;;;;;;17.71;100.00;101566.69;5100376;28;20032;-79
2022/10/29 09:19:59;;;;;;;21.90;6.30;;;;;;;17.45;100.00;101573.75;5119655;28;20031;-79
2022/10/29 09:22:41;;;;;;;16.05;6.25;;;;;;;17.67;100.00;101577.19;5065890;28;20024;-79
2022/10/29 09:25:20;;;;;;;14.30;6.10;;;;;;;17.74;100.00;101572.81;5100637;28;20036;-79
2022/10/29 09:28:15;;;;;;;19.10;6.05;;;;;;;18.44;100.00;101554.84;5083490;28;20136;-79
2022/10/29 09:31:05;;;;;;;23.55;5.65;;;;;;;19.31;100.00;101569.06;5079356;28;20154;-80
2022/10/29 09:33:31;;;;;;;14.27;4.97;;;;;;;19.38;100.00;101564.59;5098072;28;20505;-79
2022/10/29 09:35:58;;;;;;;19.65;5.35;;;;;;;19.59;100.00;101575.34;5079964;28;20047;-79
2022/10/29 09:38:44;;;;;;;14.75;5.07;;;;;;;19.73;100.00;101573.91;5099976;28;20028;-79
2022/10/29 09:41:11;;;;;;;24.38;5.60;;;;;;;19.30;100.00;101562.66;5115083;28;20063;-79
2022/10/29 09:44:05;;;;;;;20.98;5.53;;;;;;;19.06;100.00;101563.31;5081896;28;20064;-78
2022/10/29 09:46:45;;;;;;;16.27;5.13;;;;;;;18.97;100.00;101555.94;5085164;28;20035;-78
2022/10/29 09:49:35;;;;;;;18.88;5.72;;;;;;;18.79;100.00;101558.69;5083514;28;20024;-78
2022/10/29 09:52:13;;;;;;;17.17;5.53;;;;;;;18.93;100.00;101563.72;5100414;28;20028;-78
2022/10/29 09:54:38;;;;;;;15.38;5.95;;;;;;;18.91;100.00;101550.00;5117662;28;20027;-78
2022/10/29 09:57:04;;;;;;;17.45;6.70;;;;;;;18.89;100.00;101552.06;5100031;28;20039;-78
2022/10/29 09:59:37;;;;;;;20.00;7.22;;;;;;;19.00;100.00;101547.28;5081653;28;20036;-78
2022/10/29 10:02:21;;;;;;;22.13;6.97;;;;;;;19.03;100.00;101544.19;5080008;28;20032;-79
2022/10/29 10:04:50;;;;;;;18.50;7.38;;;;;;;19.09;100.00;101549.97;5078011;28;20513;-78
2022/10/29 10:07:17;;;;;;;23.67;6.28;;;;;;;19.18;100.00;101544.50;5118130;28;20024;-78
2022/10/29 10:09:52;;;;;;;17.90;6.07;;;;;;;19.15;100.00;101533.72;5116545;28;20048;-78
2022/10/29 10:12:19;;;;;;;20.02;5.97;;;;;;;19.15;100.00;101542.03;5075875;28;20044;-78
2022/10/29 10:14:46;;;;;;;21.45;5.68;;;;;;;19.00;100.00;101537.06;5077366;28;20040;-79
2022/10/29 10:17:12;;;;;;;18.88;6.15;;;;;;;19.05;100.00;101534.69;5062561;28;20194;-79
2022/10/29 10:19:43;;;;;;;18.55;6.07;;;;;;;19.56;100.00;101529.34;5096137;28;20082;-78
2022/10/29 10:22:20;;;;;;;19.58;5.65;;;;;;;19.93;100.00;101527.31;5095973;28;20031;-79
2022/10/29 10:24:46;;;;;;;14.43;5.45;;;;;;;20.17;100.00;101534.88;5079256;28;20043;-78
2022/10/29 10:27:18;;;;;;;17.45;5.30;;;;;;;20.63;100.00;101532.59;5096397;28;20044;-78
2022/10/29 10:30:03;;;;;;;20.80;5.57;;;;;;;20.89;100.00;101531.56;5078362;28;20079;-79
2022/10/29 10:32:29;;;;;;;19.50;5.43;;;;;;;20.72;100.00;101516.78;5081742;28;20032;-78
2022/10/29 10:34:54;;;;;;;16.75;5.35;;;;;;;20.84;100.00;101520.09;5079697;28;20166;-79
2022/10/29 10:37:20;;;;;;;21.80;5.55;;;;;;;20.99;100.00;101514.69;5075411;28;20197;-79
2022/10/29 10:39:51;;;;;;;14.07;5.22;;;;;;;21.15;100.00;101519.41;5075420;28;20040;-79
2022/10/29 10:42:33;;;;;;;22.83;5.40;;;;;;;21.10;100.00;101526.38;5094897;28;20081;-79
2022/10/29 10:45:14;;;;;;;19.50;5.28;;;;;;;20.81;100.00;101526.91;5094414;28;20032;-79
2022/10/29 10:47:49;;;;;;;15.65;5.50;;;;;;;20.56;100.00;101526.81;5095556;28;20035;-78
2022/10/29 10:50:29;;;;;;;18.50;4.88;;;;;;;20.91;100.00;101526.72;5094830;28;20470;-79
2022/10/29 10:53:02;;;;;;;17.17;5.13;;;;;;;21.10;100.00;101512.47;5095777;28;20032;-79
2022/10/29 10:55:37;;;;;;;18.30;5.95;;;;;;;21.26;100.00;101513.47;5094602;28;20116;-78
2022/10/29 10:58:19;;;;;;;16.08;5.22;;;;;;;21.43;100.00;101512.41;5072535;28;20054;-79
2022/10/29 11:00:52;;;;;;;21.23;5.60;;;;;;;21.56;100.00;101505.44;5095279;28;20036;-79
2022/10/29 11:03:26;;;;;;;13.07;4.63;;;;;;;21.63;100.00;101507.34;5097272;28;20099;-79
2022/10/29 11:06:06;;;;;;;19.50;4.63;;;;;;;21.73;100.00;101503.50;5078703;28;20043;-79
2022/10/29 11:08:41;;;;;;;21.60;4.75;;;;;;;21.85;100.00;101502.91;5095886;28;20036;-78
2022/10/29 11:11:27;;;;;;;23.55;4.93;;;;;;;21.67;100.00;101505.94;5095179;28;20035;-79
2022/10/29 11:13:57;;;;;;;18.00;4.43;;;;;;;21.69;100.00;101502.97;5110465;28;20709;-79
2022/10/29 11:16:46;;;;;;;30.42;4.75;;;;;;;21.63;100.00;101490.63;5098459;28;20049;-79